CheckWX is a tool to help pilots better visualize weather data.  It is not intended as a substitute for an official pre-flight weather briefing.

03:33:44 UTC

EGPD METAR
Aberdeen Dyce Airport
Aberdeen, United Kingdom
Current

14 mins ago

EGPD 220320Z AUTO 15007KT 120V180 9000 OVC003 15/14 Q1005 BECMG BKN007
Observed
Jul-22 @ 03:20 UTC
Wind
  • 150° at 7 KTS
Visibility
9,000 meters
Flight Rules
LIFR
Cloud Levels
  • Overcast at 300' AGL
Temperature
15°C / 59°F
Dewpoint
14°C / 57°F
Humidity
94%
Altimeter
29.68" Hg
Pressure
1004.92 hPa
Previous

44 mins ago

EGPD 220250Z AUTO 17009KT 4900 BR OVC003 15/14 Q1005 BECMG 6000 BKN006
Observed
Jul-22 @ 02:50 UTC
Wind
  • 170° at 9 KTS
Visibility
4,900 meters
Flight Rules
LIFR
Conditions
Mist
Cloud Levels
  • Overcast at 300' AGL
Temperature
15°C / 59°F
Dewpoint
14°C / 57°F
Humidity
94%
Altimeter
29.68" Hg
Pressure
1004.92 hPa
Previous

1 hour ago

EGPD 220220Z AUTO 17010KT 4300 -DZ OVC003 15/14 Q1005
Observed
Jul-22 @ 02:20 UTC
Wind
  • 170° at 10 KTS
Visibility
4,300 meters
Flight Rules
LIFR
Conditions
Light Drizzle
Cloud Levels
  • Overcast at 300' AGL
Temperature
15°C / 59°F
Dewpoint
14°C / 57°F
Humidity
94%
Altimeter
29.68" Hg
Pressure
1004.92 hPa